Time;durP1;ratioP1;P1;durP2;ratioP2;P2;SDS_P1;SDS_P2;PMS_P1;PMS_P2;Temp;Humidity;BMP_temperature;BMP_pressure;BME280_temperature;BME280_humidity;BME280_pressure;Samples;Min_cycle;Max_cycle;Signal;HPM_P1;HPM_P2
2022/08/28 00:00:38;;;;;;;10.13;3.60;;;;;;;15.96;82.86;101717.38;5212271;28;20908;-69
2022/08/28 00:03:12;;;;;;;11.20;3.80;;;;;;;15.84;82.96;101719.28;5209808;28;20375;-70
2022/08/28 00:05:43;;;;;;;7.93;3.45;;;;;;;15.94;85.65;101724.72;5211945;28;20135;-70
2022/08/28 00:08:15;;;;;;;8.80;3.67;;;;;;;15.87;85.96;101725.22;5213476;28;20531;-70
2022/08/28 00:10:47;;;;;;;8.10;3.83;;;;;;;15.75;84.06;101733.50;5223166;28;20033;-70
2022/08/28 00:13:22;;;;;;;9.27;3.47;;;;;;;15.74;84.43;101726.38;5210050;28;20391;-70
2022/08/28 00:15:56;;;;;;;7.18;3.20;;;;;;;15.76;85.85;101735.19;5210617;28;20025;-70
2022/08/28 00:18:30;;;;;;;7.93;3.83;;;;;;;15.67;85.53;101726.03;5201762;28;20039;-70
2022/08/28 00:21:02;;;;;;;8.93;3.75;;;;;;;15.68;86.36;101736.66;5210646;28;20126;-70
2022/08/28 00:23:33;;;;;;;9.23;3.55;;;;;;;15.57;85.43;101730.47;5208287;28;20105;-70
2022/08/28 00:26:04;;;;;;;10.25;4.10;;;;;;;15.58;85.78;101732.19;5207776;28;20055;-70
2022/08/28 00:28:36;;;;;;;8.43;3.40;;;;;;;15.51;85.74;101725.59;5209783;28;20026;-70
2022/08/28 00:31:07;;;;;;;9.20;4.30;;;;;;;15.52;87.36;101727.31;5210175;28;20877;-69
2022/08/28 00:33:39;;;;;;;9.75;4.30;;;;;;;15.41;86.55;101738.97;5205349;28;20367;-70
2022/08/28 00:36:10;;;;;;;12.57;3.83;;;;;;;15.33;86.51;101736.91;5209949;28;20493;-69
2022/08/28 00:38:41;;;;;;;11.75;4.55;;;;;;;15.29;86.73;101743.53;5212160;28;20042;-70
2022/08/28 00:41:13;;;;;;;8.27;3.72;;;;;;;15.35;90.24;101740.31;5208816;28;20029;-70
2022/08/28 00:43:46;;;;;;;9.98;3.95;;;;;;;15.28;89.73;101736.41;5209995;28;20018;-70
2022/08/28 00:46:22;;;;;;;11.30;4.25;;;;;;;15.17;88.48;101733.75;5208636;28;20042;-69
2022/08/28 00:48:53;;;;;;;8.27;3.90;;;;;;;15.24;88.13;101733.13;5209330;28;20053;-69
2022/08/28 00:54:17;;;;;;;10.80;3.88;;;;;;;15.05;88.38;101736.50;5223142;28;20028;-69
2022/08/28 00:56:50;;;;;;;13.53;4.23;;;;;;;15.03;90.11;101735.75;5213981;28;20440;-70
2022/08/28 00:59:25;;;;;;;13.32;4.53;;;;;;;15.07;93.08;101742.59;5203746;28;20033;-70
2022/08/28 01:01:58;;;;;;;10.65;4.72;;;;;;;15.04;90.38;101741.97;5210999;28;20521;-70
2022/08/28 01:04:31;;;;;;;9.93;3.75;;;;;;;14.86;90.50;101749.69;5211589;28;20026;-70
2022/08/28 01:07:07;;;;;;;8.93;4.13;;;;;;;14.86;91.30;101744.31;5206688;28;20382;-70
2022/08/28 01:09:42;;;;;;;10.55;4.00;;;;;;;14.79;91.47;101749.34;5209473;28;20034;-70
2022/08/28 01:12:23;;;;;;;11.93;3.90;;;;;;;14.84;91.21;101757.00;5209443;28;20060;-70
2022/08/28 01:14:58;;;;;;;9.02;3.90;;;;;;;14.76;91.51;101760.31;5207411;28;20034;-70
2022/08/28 01:17:33;;;;;;;12.15;4.00;;;;;;;14.67;91.86;101750.31;5208332;28;20737;-70
2022/08/28 01:20:09;;;;;;;12.10;4.97;;;;;;;14.65;91.79;101753.13;5208168;28;20037;-70
2022/08/28 01:23:07;;;;;;;13.95;4.25;;;;;;;14.65;91.61;101750.44;5211281;28;20030;-70
2022/08/28 01:25:39;;;;;;;10.68;4.07;;;;;;;14.57;92.36;101747.47;5209046;28;20053;-70
2022/08/28 01:28:12;;;;;;;17.08;5.75;;;;;;;14.53;92.65;101748.66;5206363;28;20046;-70
2022/08/28 01:30:46;;;;;;;11.13;4.18;;;;;;;14.54;93.08;101750.41;5209682;28;20071;-70
2022/08/28 01:33:18;;;;;;;9.10;4.40;;;;;;;14.52;93.49;101752.34;5208643;28;20036;-70
2022/08/28 01:35:49;;;;;;;10.70;4.35;;;;;;;14.52;94.24;101752.34;5210290;28;20083;-70
2022/08/28 01:38:21;;;;;;;9.95;4.13;;;;;;;14.49;94.15;101755.25;5208132;28;20606;-70
2022/08/28 01:40:56;;;;;;;10.93;4.13;;;;;;;14.43;93.93;101758.44;5208677;28;20082;-70
2022/08/28 01:43:27;;;;;;;11.98;4.38;;;;;;;14.57;96.16;101752.00;5209422;28;20167;-70
2022/08/28 01:46:03;;;;;;;10.77;4.55;;;;;;;14.54;97.82;101761.13;5208656;28;20025;-70
2022/08/28 01:48:37;;;;;;;9.50;4.43;;;;;;;14.46;95.35;101758.22;5207188;28;20066;-70
2022/08/28 01:51:10;;;;;;;10.05;4.30;;;;;;;14.48;95.20;101765.16;5209804;28;20440;-70
2022/08/28 01:53:42;;;;;;;12.40;4.68;;;;;;;14.44;95.99;101766.38;5210412;28;20073;-70
2022/08/28 01:56:15;;;;;;;12.90;4.63;;;;;;;14.45;94.87;101761.84;5209506;28;20438;-70
2022/08/28 01:58:49;;;;;;;9.45;4.07;;;;;;;14.41;94.64;101760.41;5207787;28;20157;-70
2022/08/28 02:01:21;;;;;;;12.02;4.15;;;;;;;14.37;94.86;101764.28;5214713;28;20038;-70
2022/08/28 02:03:52;;;;;;;12.80;3.92;;;;;;;14.32;95.42;101762.81;5212353;28;20440;-70
2022/08/28 02:06:24;;;;;;;9.82;4.20;;;;;;;14.28;95.45;101766.69;5209727;28;20038;-70
2022/08/28 02:08:56;;;;;;;13.50;4.15;;;;;;;14.26;95.52;101765.97;5207281;28;20041;-70
2022/08/28 02:11:31;;;;;;;10.88;4.07;;;;;;;14.29;97.79;101768.41;5212780;28;20022;-70
2022/08/28 02:14:02;;;;;;;15.25;4.53;;;;;;;14.35;99.44;101767.09;5209938;28;20033;-70
2022/08/28 02:16:34;;;;;;;6.28;3.40;;;;;;;14.33;98.22;101777.09;5208524;28;20026;-70
2022/08/28 02:19:05;;;;;;;13.25;4.07;;;;;;;14.25;98.62;101775.00;5207572;28;20484;-70
2022/08/28 02:21:37;;;;;;;11.25;4.05;;;;;;;14.27;98.87;101774.91;5212695;28;20083;-70
2022/08/28 02:24:08;;;;;;;10.63;4.30;;;;;;;14.13;97.89;101773.25;5208898;28;20069;-70
2022/08/28 02:26:39;;;;;;;11.80;4.70;;;;;;;14.06;97.69;101772.88;5213186;28;21391;-70
2022/08/28 02:29:11;;;;;;;11.57;4.60;;;;;;;13.99;98.41;101785.03;5211338;28;20061;-70
2022/08/28 02:31:42;;;;;;;10.43;4.50;;;;;;;14.01;100.00;101774.19;5212372;28;20024;-70
2022/08/28 02:34:13;;;;;;;12.07;4.47;;;;;;;13.98;99.63;101783.34;5209093;28;20046;-70
2022/08/28 02:36:45;;;;;;;7.55;4.07;;;;;;;13.97;100.00;101776.25;5211665;28;20057;-70
2022/08/28 02:39:16;;;;;;;9.20;3.88;;;;;;;13.82;100.00;101778.28;5212019;28;20026;-70
2022/08/28 02:41:47;;;;;;;12.65;5.05;;;;;;;13.79;99.89;101786.56;5212952;28;20458;-70
2022/08/28 02:44:18;;;;;;;10.80;4.82;;;;;;;13.72;100.00;101785.31;5210875;28;20018;-70
2022/08/28 02:46:50;;;;;;;10.75;4.88;;;;;;;13.76;100.00;101785.94;5212616;28;20074;-70
2022/08/28 02:49:22;;;;;;;11.82;4.80;;;;;;;13.65;100.00;101781.34;5223113;28;20057;-70
2022/08/28 02:51:55;;;;;;;9.85;4.28;;;;;;;13.71;100.00;101778.22;5236116;28;20399;-70
2022/08/28 02:54:26;;;;;;;11.20;4.35;;;;;;;13.74;100.00;101775.31;5212119;28;20475;-70
2022/08/28 02:56:58;;;;;;;11.63;4.60;;;;;;;13.62;100.00;101779.78;5213621;28;20106;-70
2022/08/28 02:59:30;;;;;;;10.55;4.50;;;;;;;13.65;100.00;101779.56;5211104;28;20052;-70
2022/08/28 03:02:03;;;;;;;12.32;4.25;;;;;;;13.68;100.00;101778.47;5211162;28;20129;-70
2022/08/28 03:04:36;;;;;;;10.73;4.53;;;;;;;13.52;100.00;101781.44;5210735;28;20040;-70
2022/08/28 03:07:08;;;;;;;10.43;4.00;;;;;;;13.51;100.00;101780.56;5209774;28;20475;-70
2022/08/28 03:09:42;;;;;;;11.40;4.60;;;;;;;13.44;100.00;101770.41;5201016;28;20034;-70
2022/08/28 03:12:14;;;;;;;9.30;4.20;;;;;;;13.58;100.00;101777.44;5206387;28;20026;-70
2022/08/28 03:14:46;;;;;;;11.65;4.70;;;;;;;13.47;100.00;101783.59;5208445;28;20474;-69
2022/08/28 03:17:18;;;;;;;10.20;3.88;;;;;;;13.55;100.00;101780.34;5212608;28;20037;-70
2022/08/28 03:19:50;;;;;;;11.30;4.60;;;;;;;13.33;100.00;101780.09;5209087;28;20030;-69
2022/08/28 03:23:24;;;;;;;13.45;4.47;;;;;;;13.30;100.00;101784.81;5206196;28;20083;-70
2022/08/28 03:25:13;;;;;;;8.52;4.45;;;;;;;13.39;100.00;101792.19;5217956;28;20041;-70
2022/08/28 03:27:44;;;;;;;11.25;4.65;;;;;;;13.28;100.00;101784.91;5211112;28;20029;-70
2022/08/28 03:30:16;;;;;;;15.15;4.88;;;;;;;13.26;100.00;101792.19;5210865;28;20363;-70
2022/08/28 03:32:48;;;;;;;11.05;4.90;;;;;;;13.23;100.00;101797.81;5211575;28;20397;-70
2022/08/28 03:35:20;;;;;;;11.20;5.00;;;;;;;13.20;100.00;101795.31;5210919;28;20033;-70
2022/08/28 03:37:52;;;;;;;12.63;4.82;;;;;;;13.28;100.00;101795.63;5211081;28;20509;-70
2022/08/28 03:40:23;;;;;;;8.98;4.50;;;;;;;13.18;100.00;101791.91;5210857;28;20026;-70
2022/08/28 03:42:55;;;;;;;12.00;4.40;;;;;;;13.12;100.00;101798.56;5211822;28;20069;-69
2022/08/28 03:45:26;;;;;;;14.85;5.20;;;;;;;13.14;100.00;101798.47;5211939;28;20470;-70
2022/08/28 03:47:57;;;;;;;8.98;4.90;;;;;;;13.07;100.00;101800.72;5211664;28;20077;-70
2022/08/28 03:50:28;;;;;;;9.05;4.63;;;;;;;13.11;100.00;101802.19;5210443;28;20042;-70
2022/08/28 03:53:00;;;;;;;11.95;5.30;;;;;;;13.04;100.00;101798.28;5211521;28;20042;-70
2022/08/28 03:55:31;;;;;;;8.30;4.40;;;;;;;13.00;100.00;101807.50;5205153;28;20038;-70
2022/08/28 03:58:03;;;;;;;11.80;4.82;;;;;;;13.00;100.00;101802.13;5211150;28;20037;-70
2022/08/28 04:00:34;;;;;;;12.90;5.47;;;;;;;12.90;100.00;101815.31;5209167;28;20029;-70
2022/08/28 04:03:05;;;;;;;10.65;4.68;;;;;;;12.88;100.00;101806.53;5209958;28;20030;-70
2022/08/28 04:05:42;;;;;;;10.90;5.13;;;;;;;12.80;100.00;101810.72;5200180;28;20053;-70
2022/08/28 04:08:16;;;;;;;10.63;5.18;;;;;;;12.77;100.00;101803.78;5203895;28;20018;-70
2022/08/28 04:10:48;;;;;;;12.77;5.80;;;;;;;12.85;100.00;101809.44;5211911;28;20037;-70
2022/08/28 04:13:20;;;;;;;11.73;5.45;;;;;;;12.76;100.00;101810.06;5207062;28;20018;-70
2022/08/28 04:15:59;;;;;;;11.45;5.40;;;;;;;12.77;100.00;101805.56;5208170;28;20051;-70
2022/08/28 04:18:31;;;;;;;12.23;5.18;;;;;;;12.64;100.00;101802.91;5210897;28;20166;-70
2022/08/28 04:21:06;;;;;;;12.48;5.18;;;;;;;12.62;100.00;101803.03;5210595;28;20551;-70
2022/08/28 04:23:39;;;;;;;11.20;5.38;;;;;;;12.54;100.00;101800.88;5209686;28;20030;-69
2022/08/28 04:26:14;;;;;;;9.55;4.68;;;;;;;12.50;100.00;101804.72;5209648;28;20521;-69
2022/08/28 04:28:46;;;;;;;12.38;5.55;;;;;;;12.49;100.00;101812.88;5211505;28;20370;-70
2022/08/28 04:31:18;;;;;;;12.07;5.22;;;;;;;12.51;100.00;101813.63;5209698;28;20361;-70
2022/08/28 04:33:49;;;;;;;10.15;5.15;;;;;;;12.47;100.00;101820.16;5210465;28;20032;-69
2022/08/28 04:36:21;;;;;;;11.57;5.35;;;;;;;12.62;100.00;101816.41;5206183;28;20062;-70
2022/08/28 04:38:53;;;;;;;15.85;6.47;;;;;;;12.61;100.00;101814.69;5211832;28;20026;-70
2022/08/28 04:41:26;;;;;;;14.15;5.55;;;;;;;12.48;100.00;101813.81;5210846;28;20037;-70
2022/08/28 04:43:57;;;;;;;11.18;4.97;;;;;;;12.52;100.00;101818.00;5208964;28;20416;-69
2022/08/28 04:46:29;;;;;;;11.80;5.25;;;;;;;12.60;100.00;101818.34;5206082;28;20141;-69
2022/08/28 04:49:03;;;;;;;13.80;5.22;;;;;;;12.52;100.00;101823.34;5209769;28;20050;-69
2022/08/28 04:51:34;;;;;;;14.82;5.45;;;;;;;12.54;100.00;101818.75;5210291;28;20033;-69
2022/08/28 04:54:06;;;;;;;10.90;5.35;;;;;;;12.62;100.00;101821.75;5209596;28;20503;-70
2022/08/28 04:56:39;;;;;;;13.85;5.72;;;;;;;12.49;100.00;101821.75;5209491;28;20488;-70
2022/08/28 04:59:11;;;;;;;12.25;5.55;;;;;;;12.47;100.00;101825.50;5208537;28;20219;-70
2022/08/28 05:01:42;;;;;;;13.70;5.10;;;;;;;12.46;100.00;101823.78;5210170;28;20372;-70
2022/08/28 05:04:14;;;;;;;12.18;5.20;;;;;;;12.44;100.00;101829.22;5209596;28;20030;-70
2022/08/28 05:06:46;;;;;;;11.68;4.82;;;;;;;12.47;100.00;101830.84;5211759;28;20037;-70
2022/08/28 05:09:18;;;;;;;10.20;4.95;;;;;;;12.47;100.00;101830.84;5213934;28;20024;-69
2022/08/28 05:11:51;;;;;;;9.32;4.68;;;;;;;12.52;100.00;101842.06;5207052;28;20038;-70
2022/08/28 05:14:23;;;;;;;11.35;5.22;;;;;;;12.48;100.00;101840.56;5212896;28;20034;-69
2022/08/28 05:16:55;;;;;;;9.98;5.05;;;;;;;12.46;100.00;101843.34;5209101;28;20083;-70
2022/08/28 05:19:27;;;;;;;11.63;5.00;;;;;;;12.45;100.00;101846.16;5202900;28;20030;-69
2022/08/28 05:21:58;;;;;;;14.52;5.30;;;;;;;12.42;100.00;101852.56;5203909;28;20038;-69
2022/08/28 05:24:29;;;;;;;12.30;5.32;;;;;;;12.47;100.00;101857.63;5202201;28;20033;-69
2022/08/28 05:27:01;;;;;;;13.60;5.75;;;;;;;12.49;100.00;101853.00;5208530;28;20042;-70
2022/08/28 05:29:33;;;;;;;9.98;4.55;;;;;;;12.47;100.00;101849.59;5209297;28;20711;-70
2022/08/28 05:32:04;;;;;;;14.48;5.35;;;;;;;12.43;100.00;101861.47;5210002;28;20121;-70
2022/08/28 05:34:35;;;;;;;10.60;4.72;;;;;;;12.52;100.00;101858.13;5209511;28;20044;-70
2022/08/28 05:37:07;;;;;;;8.95;4.28;;;;;;;12.46;100.00;101861.25;5210006;28;20491;-70
2022/08/28 05:39:39;;;;;;;14.18;5.18;;;;;;;12.44;100.00;101866.69;5208559;28;20037;-70
2022/08/28 05:42:10;;;;;;;11.02;5.07;;;;;;;12.45;100.00;101868.44;5210020;28;20030;-70
2022/08/28 05:44:41;;;;;;;7.82;4.88;;;;;;;12.50;100.00;101865.41;5209094;28;20022;-70
2022/08/28 05:47:15;;;;;;;12.10;4.97;;;;;;;12.47;100.00;101863.81;5209249;28;20041;-70
2022/08/28 05:49:46;;;;;;;12.00;6.00;;;;;;;12.48;100.00;101862.00;5211402;28;20304;-70
2022/08/28 05:52:17;;;;;;;13.13;5.63;;;;;;;12.51;100.00;101867.16;5209436;28;20022;-69
2022/08/28 05:54:50;;;;;;;11.88;4.72;;;;;;;12.49;100.00;101869.94;5208557;28;20034;-69
2022/08/28 05:57:21;;;;;;;11.15;5.10;;;;;;;12.56;100.00;101867.69;5210589;28;20137;-70
2022/08/28 05:59:52;;;;;;;10.70;4.95;;;;;;;12.57;100.00;101863.19;5205672;28;21577;-69
2022/08/28 06:02:24;;;;;;;13.15;5.57;;;;;;;12.59;100.00;101863.94;5197193;28;20034;-69
2022/08/28 06:04:56;;;;;;;14.02;5.40;;;;;;;12.64;100.00;101867.19;5209145;28;20018;-69
2022/08/28 06:07:27;;;;;;;12.77;5.25;;;;;;;12.68;100.00;101874.03;5207075;28;20038;-69
2022/08/28 06:09:59;;;;;;;12.68;5.32;;;;;;;12.72;100.00;101879.06;5207890;28;20026;-69
2022/08/28 06:12:30;;;;;;;13.23;5.15;;;;;;;12.77;100.00;101881.44;5210573;28;20129;-70
2022/08/28 06:15:02;;;;;;;11.40;5.63;;;;;;;12.89;100.00;101888.59;5201951;28;20392;-69
2022/08/28 06:17:33;;;;;;;9.90;5.22;;;;;;;12.89;100.00;101882.41;5210500;28;20496;-69
2022/08/28 06:20:06;;;;;;;15.95;5.70;;;;;;;12.97;100.00;101879.19;5208869;28;20491;-69
2022/08/28 06:22:37;;;;;;;12.52;5.70;;;;;;;13.00;100.00;101884.31;5205484;28;20036;-69
2022/08/28 06:25:12;;;;;;;11.15;5.75;;;;;;;13.05;100.00;101885.69;5209437;28;20650;-69
2022/08/28 06:27:44;;;;;;;12.07;5.35;;;;;;;13.09;100.00;101887.19;5206043;28;20030;-70
2022/08/28 06:30:15;;;;;;;14.10;5.57;;;;;;;13.13;100.00;101886.03;5207960;28;20029;-69
2022/08/28 06:32:47;;;;;;;15.93;5.93;;;;;;;13.18;100.00;101879.50;5234815;28;20033;-69
2022/08/28 06:35:18;;;;;;;12.63;5.50;;;;;;;13.24;100.00;101884.41;5203423;28;20091;-69
2022/08/28 06:37:49;;;;;;;11.35;5.53;;;;;;;13.32;100.00;101884.75;5207397;28;20083;-69
2022/08/28 06:40:20;;;;;;;15.80;5.97;;;;;;;13.34;100.00;101882.81;5206893;28;20488;-70
2022/08/28 06:42:52;;;;;;;15.68;5.85;;;;;;;13.40;100.00;101898.44;5208058;28;20636;-69
2022/08/28 06:45:23;;;;;;;13.15;6.25;;;;;;;13.48;100.00;101900.56;5204692;28;20546;-70
2022/08/28 06:47:54;;;;;;;16.50;6.32;;;;;;;13.56;100.00;101900.03;5210197;28;20450;-70
2022/08/28 06:50:26;;;;;;;11.20;4.70;;;;;;;13.60;100.00;101897.03;5206118;28;20030;-69
2022/08/28 06:52:57;;;;;;;10.75;4.97;;;;;;;13.68;100.00;101901.84;5235146;28;20604;-69
2022/08/28 06:55:28;;;;;;;12.70;4.88;;;;;;;13.73;100.00;101899.69;5212882;28;20036;-70
2022/08/28 06:58:00;;;;;;;11.80;5.00;;;;;;;13.78;100.00;101902.88;5208784;28;20033;-70
2022/08/28 07:00:33;;;;;;;12.18;5.28;;;;;;;13.97;100.00;101913.09;5213789;28;20075;-69
2022/08/28 07:03:05;;;;;;;10.07;4.30;;;;;;;14.01;100.00;101903.00;5209011;28;20030;-70
2022/08/28 07:05:36;;;;;;;13.02;4.60;;;;;;;14.14;100.00;101903.81;5222266;28;20041;-70
2022/08/28 07:08:08;;;;;;;9.02;4.00;;;;;;;14.21;100.00;101905.06;5211328;28;20098;-69
2022/08/28 07:10:39;;;;;;;7.63;4.18;;;;;;;14.41;100.00;101905.38;5209063;28;20469;-70
2022/08/28 07:13:10;;;;;;;10.57;4.13;;;;;;;14.46;100.00;101904.06;5203938;28;20480;-70
2022/08/28 07:15:42;;;;;;;8.98;3.83;;;;;;;14.63;100.00;101904.63;5210078;28;20480;-70
2022/08/28 07:18:14;;;;;;;9.13;4.20;;;;;;;14.69;100.00;101907.69;5208218;28;20487;-70
2022/08/28 07:20:56;;;;;;;13.15;4.15;;;;;;;14.86;100.00;101900.16;5212886;28;20053;-70
2022/08/28 07:23:29;;;;;;;9.18;3.95;;;;;;;14.96;100.00;101906.53;5227833;28;20105;-70
2022/08/28 07:26:07;;;;;;;12.43;4.15;;;;;;;15.04;100.00;101906.78;5205729;28;20384;-70
2022/08/28 07:28:39;;;;;;;10.60;3.70;;;;;;;15.28;98.44;101916.56;5219421;28;20057;-70
2022/08/28 07:31:13;;;;;;;9.98;3.50;;;;;;;15.36;96.97;101915.97;5208644;28;20478;-70
2022/08/28 07:33:45;;;;;;;9.13;3.67;;;;;;;15.52;96.91;101915.59;5213335;28;20091;-70
2022/08/28 07:36:20;;;;;;;8.27;3.17;;;;;;;15.60;95.73;101913.16;5210927;28;20033;-70
2022/08/28 07:38:52;;;;;;;14.68;4.20;;;;;;;15.70;96.12;101916.78;5211727;28;20171;-70
2022/08/28 07:41:26;;;;;;;7.97;2.97;;;;;;;15.74;96.00;101923.66;5212262;28;20034;-70
2022/08/28 07:46:55;;;;;;;9.38;3.25;;;;;;;15.92;95.34;101926.69;5231352;28;20487;-70
2022/08/28 07:49:26;;;;;;;9.45;2.80;;;;;;;16.05;92.78;101932.78;5212348;28;20415;-70
2022/08/28 07:51:58;;;;;;;8.75;2.42;;;;;;;16.08;90.53;101937.91;5210883;28;20037;-70
2022/08/28 07:54:29;;;;;;;8.85;2.60;;;;;;;16.23;89.81;101925.00;5210298;28;20045;-70
2022/08/28 07:57:03;;;;;;;10.40;2.90;;;;;;;16.31;89.14;101932.44;5211349;28;20025;-70
2022/08/28 07:59:36;;;;;;;7.25;3.00;;;;;;;16.41;88.37;101927.16;5208094;28;20029;-69
2022/08/28 08:02:09;;;;;;;8.20;2.85;;;;;;;16.48;87.70;101938.28;5212135;28;20030;-70
2022/08/28 08:04:40;;;;;;;9.05;2.60;;;;;;;16.77;86.89;101933.09;5209371;28;20112;-69
2022/08/28 08:07:11;;;;;;;7.80;2.58;;;;;;;16.88;84.46;101943.00;5210926;28;20037;-70
2022/08/28 08:09:43;;;;;;;7.75;2.40;;;;;;;17.06;84.43;101938.69;5208475;28;20025;-70
2022/08/28 08:12:15;;;;;;;7.28;2.00;;;;;;;17.10;81.54;101939.28;5207615;28;20029;-70
2022/08/28 08:14:48;;;;;;;9.43;2.30;;;;;;;17.14;82.17;101948.81;5209995;28;20094;-69
2022/08/28 08:17:20;;;;;;;7.43;2.42;;;;;;;17.14;80.08;101938.88;5211139;28;20044;-70
2022/08/28 08:19:51;;;;;;;7.15;2.58;;;;;;;17.31;82.89;101940.09;5210765;28;20403;-69
2022/08/28 08:22:23;;;;;;;8.43;2.35;;;;;;;17.52;81.45;101945.44;5207373;28;20405;-70
2022/08/28 08:24:55;;;;;;;10.98;2.28;;;;;;;17.68;80.38;101944.97;5208089;28;20021;-69
2022/08/28 08:27:26;;;;;;;8.77;2.08;;;;;;;17.82;78.48;101943.72;5220643;28;20025;-69
2022/08/28 08:29:58;;;;;;;6.32;1.83;;;;;;;17.91;77.09;101945.63;5208705;28;20851;-70
2022/08/28 08:32:29;;;;;;;6.28;1.90;;;;;;;18.14;74.92;101957.03;5210384;28;20395;-69
2022/08/28 08:35:01;;;;;;;10.60;2.58;;;;;;;18.43;76.20;101942.72;5206277;28;20348;-69
2022/08/28 08:37:32;;;;;;;7.55;2.00;;;;;;;18.60;75.14;101952.81;5209941;28;20022;-69
2022/08/28 08:40:03;;;;;;;9.57;2.53;;;;;;;18.71;73.12;101953.63;5208438;28;20491;-69
2022/08/28 08:42:37;;;;;;;6.15;1.80;;;;;;;18.84;74.89;101950.69;5210992;28;20109;-69
2022/08/28 08:45:15;;;;;;;5.27;2.03;;;;;;;18.88;71.81;101947.53;5208453;28;20040;-69
2022/08/28 08:47:52;;;;;;;5.50;1.77;;;;;;;18.87;70.92;101953.94;5212791;28;20062;-70
2022/08/28 08:50:28;;;;;;;6.28;2.28;;;;;;;18.79;70.21;101953.75;5209953;28;20483;-70
2022/08/28 08:53:20;;;;;;;5.75;2.00;;;;;;;18.75;71.89;101949.66;5202904;28;20034;-70
2022/08/28 08:55:54;;;;;;;8.88;2.13;;;;;;;18.82;70.10;101949.97;5207786;28;20034;-70
2022/08/28 08:58:36;;;;;;;7.13;1.85;;;;;;;18.72;70.43;101953.50;5210080;28;20551;-70
2022/08/28 09:01:16;;;;;;;6.20;2.10;;;;;;;18.66;70.49;101945.09;5208492;28;20040;-70
2022/08/28 09:03:56;;;;;;;7.47;1.88;;;;;;;18.53;71.18;101946.25;5208977;28;20466;-70
2022/08/28 09:06:48;;;;;;;6.78;1.63;;;;;;;18.46;70.66;101947.81;5210049;28;20416;-70
2022/08/28 09:09:28;;;;;;;8.45;2.10;;;;;;;18.26;69.96;101946.97;5203009;28;20033;-70
2022/08/28 09:12:05;;;;;;;6.40;1.80;;;;;;;18.14;70.48;101951.66;5203925;28;20029;-70
2022/08/28 09:15:04;;;;;;;5.32;1.73;;;;;;;18.21;70.67;101950.06;5205624;28;20029;-70
2022/08/28 09:17:47;;;;;;;7.63;1.80;;;;;;;18.34;70.60;101954.38;5209240;28;20544;-70
2022/08/28 09:20:26;;;;;;;6.57;1.75;;;;;;;18.38;71.83;101947.69;5208148;28;20109;-71
2022/08/28 09:22:58;;;;;;;4.95;1.80;;;;;;;18.33;68.83;101945.41;5206914;28;20387;-70
2022/08/28 09:25:48;;;;;;;6.25;1.52;;;;;;;18.33;68.67;101947.25;5209843;28;20202;-70
2022/08/28 09:28:27;;;;;;;6.32;1.67;;;;;;;18.48;68.98;101956.63;5210174;28;20037;-70
2022/08/28 09:31:08;;;;;;;6.80;1.52;;;;;;;18.48;68.17;101947.69;5204618;28;20061;-69
2022/08/28 09:33:45;;;;;;;4.82;1.13;;;;;;;18.55;68.07;101948.81;5204715;28;20029;-69
2022/08/28 09:36:28;;;;;;;5.75;1.48;;;;;;;18.54;68.10;101944.41;5204401;28;20037;-70
2022/08/28 09:39:11;;;;;;;7.70;1.67;;;;;;;18.54;69.20;101947.97;5208628;28;20140;-70
2022/08/28 09:45:03;;;;;;;5.45;1.52;;;;;;;18.47;69.47;101946.00;5208626;28;20323;-70
2022/08/28 09:47:53;;;;;;;6.53;1.65;;;;;;;18.48;68.70;101948.53;5203866;28;20026;-69
2022/08/28 09:50:39;;;;;;;8.25;1.70;;;;;;;18.60;68.50;101946.53;5207735;28;20437;-69
2022/08/28 09:53:10;;;;;;;6.65;1.50;;;;;;;18.57;66.34;101944.13;5204715;28;20030;-70
2022/08/28 09:56:09;;;;;;;6.60;1.35;;;;;;;18.54;67.36;101947.09;5209426;28;20082;-70
2022/08/28 09:58:48;;;;;;;7.05;1.90;;;;;;;18.53;67.48;101948.97;5206932;28;20026;-70
2022/08/28 10:01:42;;;;;;;6.80;1.95;;;;;;;18.52;69.27;101944.53;5206813;28;20590;-70
2022/08/28 10:04:16;;;;;;;5.30;1.60;;;;;;;18.53;68.21;101951.66;5206120;28;20169;-69
2022/08/28 10:06:52;;;;;;;5.20;1.35;;;;;;;18.76;65.55;101951.38;5207998;28;20396;-70
2022/08/28 10:09:57;;;;;;;4.50;1.50;;;;;;;18.98;66.11;101948.38;5206917;28;20029;-70
2022/08/28 10:12:41;;;;;;;5.82;1.40;;;;;;;19.26;66.18;101947.59;5209063;28;20610;-70
2022/08/28 10:15:29;;;;;;;5.88;1.73;;;;;;;19.67;65.34;101959.78;5207881;28;20113;-70
2022/08/28 10:18:30;;;;;;;6.97;1.90;;;;;;;19.88;62.77;101948.75;5208866;28;20034;-70
2022/08/28 10:21:19;;;;;;;4.13;1.50;;;;;;;20.26;63.31;101948.66;5211682;28;20033;-70
2022/08/28 10:24:35;;;;;;;5.70;1.90;;;;;;;20.23;62.31;101948.94;5213349;28;20030;-70
2022/08/28 10:27:37;;;;;;;6.15;1.70;;;;;;;20.23;63.83;101949.81;5209756;28;20450;-70
2022/08/28 10:30:16;;;;;;;5.32;1.40;;;;;;;20.04;63.11;101945.38;5212765;28;20091;-70
2022/08/28 10:33:28;;;;;;;6.03;1.70;;;;;;;19.96;62.34;101945.28;5212077;28;20037;-70
2022/08/28 10:36:07;;;;;;;6.35;1.90;;;;;;;19.76;62.00;101948.09;5213778;28;20038;-70
2022/08/28 10:39:00;;;;;;;5.65;1.50;;;;;;;19.89;63.45;101941.50;5210371;28;20026;-70
2022/08/28 10:41:49;;;;;;;4.32;1.65;;;;;;;19.94;65.05;101937.31;5219994;28;20045;-70
2022/08/28 10:44:33;;;;;;;5.80;1.52;;;;;;;20.06;63.32;101942.50;5209484;28;20025;-70
2022/08/28 10:47:06;;;;;;;4.90;1.55;;;;;;;20.16;65.56;101935.19;5228755;28;20388;-70
2022/08/28 10:49:40;;;;;;;4.90;1.20;;;;;;;20.26;63.33;101951.38;5210251;28;20057;-70
2022/08/28 10:52:22;;;;;;;6.40;1.60;;;;;;;20.57;60.74;101946.41;5207853;28;20042;-70
2022/08/28 10:54:53;;;;;;;4.97;1.55;;;;;;;20.79;61.95;101939.66;5210239;28;20066;-71
2022/08/28 10:57:41;;;;;;;5.40;1.40;;;;;;;21.07;60.69;101942.22;5212282;28;20428;-70
2022/08/28 11:00:17;;;;;;;5.35;1.30;;;;;;;21.20;58.00;101948.06;5208468;28;20300;-71
2022/08/28 11:02:56;;;;;;;7.38;1.80;;;;;;;21.44;58.75;101938.38;5210669;28;20491;-70
2022/08/28 11:05:33;;;;;;;5.97;1.45;;;;;;;21.47;56.90;101944.34;5209224;28;20099;-70
2022/08/28 11:08:10;;;;;;;4.32;1.25;;;;;;;21.30;57.36;101939.81;5208274;28;20033;-71
2022/08/28 11:10:53;;;;;;;5.57;1.70;;;;;;;20.98;56.94;101951.31;5209329;28;20507;-70
2022/08/28 11:13:58;;;;;;;4.43;1.40;;;;;;;20.83;58.48;101954.63;5207456;28;20065;-70
2022/08/28 11:16:30;;;;;;;6.28;1.30;;;;;;;20.77;58.09;101957.97;5208184;28;20026;-70
2022/08/28 11:19:07;;;;;;;6.10;1.60;;;;;;;20.73;57.00;101941.16;5211040;28;20045;-71
2022/08/28 11:21:53;;;;;;;5.63;1.80;;;;;;;20.89;61.31;101940.41;5212305;28;20424;-70
2022/08/28 11:24:38;;;;;;;5.13;1.80;;;;;;;21.05;58.03;101952.38;5212831;28;20423;-70
2022/08/28 11:27:32;;;;;;;4.28;1.23;;;;;;;21.21;55.92;101944.38;5211085;28;20034;-71
2022/08/28 11:30:10;;;;;;;5.72;1.35;;;;;;;21.39;55.23;101944.28;5210502;28;20036;-71
2022/08/28 11:32:50;;;;;;;5.45;1.20;;;;;;;21.48;54.36;101948.78;5211487;28;20048;-70
2022/08/28 11:35:43;;;;;;;4.30;1.17;;;;;;;21.69;57.30;101937.50;5212984;28;20075;-70
2022/08/28 11:38:39;;;;;;;4.40;1.30;;;;;;;21.97;55.23;101934.50;5204171;28;20456;-71
2022/08/28 11:41:20;;;;;;;7.50;1.30;;;;;;;21.86;53.63;101951.13;5215969;28;20480;-71
2022/08/28 11:44:06;;;;;;;4.43;1.10;;;;;;;21.65;53.81;101946.13;5210783;28;20914;-71
2022/08/28 11:46:40;;;;;;;5.50;1.90;;;;;;;21.53;52.31;101941.00;5210900;28;20045;-71
2022/08/28 11:49:30;;;;;;;;;;;;;;;21.70;54.16;101939.19;5212762;28;20129;-70
2022/08/28 11:52:43;;;;;;;6.70;1.38;;;;;;;22.03;55.53;101938.44;5218212;28;19978;-71
2022/08/28 11:55:47;;;;;;;4.22;1.25;;;;;;;21.97;53.46;101941.81;5207193;28;20044;-71
2022/08/28 11:58:45;;;;;;;4.95;1.33;;;;;;;21.77;50.94;101942.09;5213132;28;20110;-71
2022/08/28 12:01:28;;;;;;;4.40;1.48;;;;;;;21.77;52.23;101943.97;5208337;28;20041;-70
2022/08/28 12:04:03;;;;;;;4.50;1.90;;;;;;;21.90;50.93;101941.66;5208515;28;20108;-70
2022/08/28 12:06:43;;;;;;;4.43;1.30;;;;;;;22.07;52.71;101931.66;5236300;28;20079;-71